createdAt,value
2022-08-02T00:00:15.818Z,18.27
2022-08-02T00:02:46.177Z,18.04
2022-08-02T00:05:14.733Z,18.06
2022-08-02T00:07:42.997Z,18.31
2022-08-02T00:10:12.467Z,18.56
2022-08-02T00:12:40.747Z,18.59
2022-08-02T00:15:10.542Z,18.45
2022-08-02T00:17:45.549Z,18.64
2022-08-02T00:20:15.418Z,18.52
2022-08-02T00:22:43.156Z,18.30
2022-08-02T00:25:10.995Z,18.05
2022-08-02T00:27:38.819Z,18.15
2022-08-02T00:30:07.499Z,18.09
2022-08-02T00:32:35.279Z,18.08
2022-08-02T00:35:04.880Z,18.13
2022-08-02T00:37:32.628Z,18.22
2022-08-02T00:40:02.141Z,18.27
2022-08-02T00:42:29.805Z,18.00
2022-08-02T00:44:58.852Z,18.04
2022-08-02T00:47:26.616Z,17.98
2022-08-02T00:49:54.308Z,18.03
2022-08-02T00:52:23.639Z,18.12
2022-08-02T00:54:51.653Z,18.09
2022-08-02T00:57:19.439Z,17.86
2022-08-02T00:59:47.325Z,17.76
2022-08-02T01:02:15.404Z,17.85
2022-08-02T01:04:43.337Z,17.82
2022-08-02T01:07:13.035Z,18.24
2022-08-02T01:09:43.101Z,17.81
2022-08-02T01:12:11.979Z,17.73
2022-08-02T01:14:41.643Z,17.90
2022-08-02T01:17:13.285Z,17.74
2022-08-02T01:19:50.446Z,17.72
2022-08-02T01:23:00.477Z,17.52
2022-08-02T01:25:49.893Z,17.50
2022-08-02T01:28:34.158Z,17.69
2022-08-02T01:31:05.611Z,17.61
2022-08-02T01:33:39.042Z,17.35
2022-08-02T01:36:12.726Z,17.35
2022-08-02T01:38:43.880Z,17.46
2022-08-02T01:41:16.185Z,17.71
2022-08-02T01:43:47.575Z,17.50
2022-08-02T01:46:17.698Z,17.46
2022-08-02T01:48:48.392Z,17.35
2022-08-02T01:51:19.638Z,17.33
2022-08-02T01:53:50.960Z,17.38
2022-08-02T01:56:20.584Z,17.43
2022-08-02T01:58:50.860Z,17.22
2022-08-02T02:01:22.348Z,17.10
2022-08-02T02:03:50.779Z,17.08
2022-08-02T02:06:19.957Z,17.14
2022-08-02T02:08:50.381Z,17.36
2022-08-02T02:12:11.629Z,17.43
2022-08-02T02:14:09.196Z,17.24
2022-08-02T02:16:38.306Z,17.28
2022-08-02T02:19:08.138Z,17.41
2022-08-02T02:21:36.142Z,17.18
2022-08-02T02:24:05.832Z,17.20
2022-08-02T02:26:37.448Z,17.11
2022-08-02T02:29:12.655Z,17.05
2022-08-02T02:31:43.769Z,17.06
2022-08-02T02:34:15.691Z,17.08
2022-08-02T02:36:51.389Z,17.18
2022-08-02T02:39:23.277Z,17.24
2022-08-02T02:41:54.315Z,17.34
2022-08-02T02:44:23.928Z,17.40
2022-08-02T02:46:54.910Z,17.33
2022-08-02T02:49:24.100Z,17.21
2022-08-02T02:51:53.059Z,17.01
2022-08-02T02:54:32.812Z,17.14
2022-08-02T02:57:03.624Z,17.28
2022-08-02T02:59:34.107Z,17.29
2022-08-02T03:02:03.437Z,17.26
2022-08-02T03:04:55.227Z,17.23
2022-08-02T03:07:19.954Z,17.27
2022-08-02T03:09:54.018Z,17.14
2022-08-02T03:12:27.184Z,16.98
2022-08-02T03:15:00.789Z,17.03
2022-08-02T03:17:38.795Z,17.04
2022-08-02T03:20:10.644Z,17.01
2022-08-02T03:22:38.505Z,16.87
2022-08-02T03:25:07.596Z,16.95
2022-08-02T03:27:36.566Z,16.96
2022-08-02T03:30:07.827Z,16.86
2022-08-02T03:32:37.213Z,16.74
2022-08-02T03:35:07.858Z,16.82
2022-08-02T03:37:38.027Z,16.93
2022-08-02T03:40:09.539Z,17.12
2022-08-02T03:42:37.378Z,17.18
2022-08-02T03:45:10.125Z,17.07
2022-08-02T03:47:39.094Z,16.86
2022-08-02T03:50:08.671Z,16.75
2022-08-02T03:52:37.519Z,16.65
2022-08-02T03:55:05.909Z,16.60
2022-08-02T03:57:33.913Z,16.74
2022-08-02T04:00:01.622Z,16.84
2022-08-02T04:02:30.718Z,16.93
2022-08-02T04:04:58.430Z,16.80
2022-08-02T04:08:02.567Z,16.66
2022-08-02T04:10:13.876Z,16.75
2022-08-02T04:12:41.920Z,16.78
2022-08-02T04:15:12.824Z,16.80
2022-08-02T04:17:44.720Z,16.77
2022-08-02T04:20:18.947Z,16.70
2022-08-02T04:22:50.389Z,16.82
2022-08-02T04:25:21.158Z,16.85
2022-08-02T04:28:16.542Z,17.20
2022-08-02T04:30:47.308Z,17.21
2022-08-02T04:33:16.931Z,17.37
2022-08-02T04:35:45.516Z,17.35
2022-08-02T04:38:14.609Z,17.28
2022-08-02T04:40:50.694Z,17.26
2022-08-02T04:43:18.400Z,17.30
2022-08-02T04:45:48.039Z,17.40
2022-08-02T04:48:17.140Z,17.65
2022-08-02T04:50:44.995Z,17.78
2022-08-02T04:53:12.772Z,17.85
2022-08-02T04:55:40.521Z,18.01
2022-08-02T04:58:30.167Z,18.05
2022-08-02T05:00:56.081Z,18.21
2022-08-02T05:03:25.238Z,18.33
2022-08-02T05:05:52.935Z,18.48
2022-08-02T05:08:20.669Z,18.58
2022-08-02T05:10:48.509Z,18.64
2022-08-02T05:13:16.307Z,18.73
2022-08-02T05:15:44.062Z,18.82
2022-08-02T05:18:12.317Z,18.89
2022-08-02T05:20:42.381Z,18.94
2022-08-02T05:23:10.083Z,18.92
2022-08-02T05:25:37.858Z,19.04
2022-08-02T05:28:11.025Z,19.00
2022-08-02T05:30:39.412Z,19.11
2022-08-02T05:33:07.183Z,19.26
2022-08-02T05:35:35.143Z,19.35
2022-08-02T05:38:04.252Z,19.27
2022-08-02T05:40:32.319Z,19.40
2022-08-02T05:43:00.082Z,19.57
2022-08-02T05:45:28.015Z,19.56
2022-08-02T05:47:55.886Z,19.70
2022-08-02T05:50:24.275Z,19.88
2022-08-02T05:52:59.250Z,19.86
2022-08-02T05:55:31.226Z,20.11
2022-08-02T05:58:07.409Z,20.19
2022-08-02T06:00:36.415Z,20.35
2022-08-02T06:03:21.795Z,20.51
2022-08-02T06:06:06.958Z,20.60
2022-08-02T06:08:39.382Z,20.59
2022-08-02T06:11:13.334Z,20.41
2022-08-02T06:13:42.174Z,20.57
2022-08-02T06:16:14.046Z,20.82
2022-08-02T06:18:44.030Z,20.96
2022-08-02T06:22:34.858Z,21.01
2022-08-02T06:24:00.265Z,21.11
2022-08-02T06:26:29.652Z,21.06
2022-08-02T06:28:59.009Z,21.09
2022-08-02T06:31:26.907Z,21.02
2022-08-02T06:33:54.653Z,21.25
2022-08-02T06:36:33.143Z,21.25
2022-08-02T06:39:04.644Z,21.51
2022-08-02T06:41:41.140Z,21.71
2022-08-02T06:44:45.052Z,22.16
2022-08-02T06:47:11.314Z,22.39
2022-08-02T06:49:52.879Z,22.15
2022-08-02T06:52:27.870Z,21.81
2022-08-02T06:54:56.838Z,22.32
2022-08-02T06:57:25.958Z,21.86
2022-08-02T06:59:53.740Z,22.11
2022-08-02T07:02:21.762Z,22.47
2022-08-02T07:04:49.614Z,22.61
2022-08-02T07:07:17.395Z,22.26
2022-08-02T07:09:56.388Z,21.99
2022-08-02T07:12:31.401Z,22.46
2022-08-02T07:14:59.677Z,22.63
2022-08-02T07:17:27.758Z,22.60
2022-08-02T07:19:55.570Z,22.90
2022-08-02T07:22:24.482Z,22.99
2022-08-02T07:24:52.734Z,23.03
2022-08-02T07:27:21.454Z,22.68
2022-08-02T07:29:50.548Z,23.21
2022-08-02T07:32:18.881Z,23.30
2022-08-02T07:34:51.159Z,23.82
2022-08-02T07:37:35.711Z,24.09
2022-08-02T07:40:13.396Z,24.08
2022-08-02T07:42:42.525Z,24.01
2022-08-02T07:45:12.401Z,24.15
2022-08-02T07:47:40.382Z,24.43
2022-08-02T07:50:09.771Z,24.57
2022-08-02T07:52:37.894Z,24.60
2022-08-02T07:55:06.900Z,24.54
2022-08-02T07:57:34.736Z,24.73
2022-08-02T08:00:02.580Z,25.22
2022-08-02T08:02:31.708Z,25.53
2022-08-02T08:04:59.428Z,25.08
2022-08-02T08:07:27.217Z,24.80
2022-08-02T08:09:56.569Z,25.60
2022-08-02T08:12:24.800Z,25.68
2022-08-02T08:14:52.684Z,25.16
2022-08-02T08:17:20.649Z,26.37
2022-08-02T08:19:53.242Z,26.49
2022-08-02T08:22:21.277Z,26.50
2022-08-02T08:24:49.116Z,25.65
2022-08-02T08:27:17.436Z,25.92
2022-08-02T08:29:46.209Z,27.06
2022-08-02T08:32:17.663Z,26.43
2022-08-02T08:34:46.418Z,27.02
2022-08-02T08:37:17.701Z,26.96
2022-08-02T08:39:56.224Z,28.03
2022-08-02T08:42:25.823Z,28.00
2022-08-02T08:44:53.632Z,28.60
2022-08-02T08:47:24.549Z,28.69
2022-08-02T08:49:56.806Z,28.84
2022-08-02T08:52:28.190Z,29.48
2022-08-02T08:54:57.495Z,29.84
2022-08-02T08:57:30.658Z,30.14
2022-08-02T08:59:58.592Z,30.46
2022-08-02T09:02:28.451Z,29.73
2022-08-02T09:04:59.293Z,29.81
2022-08-02T09:07:28.451Z,30.29
2022-08-02T09:09:58.646Z,29.36
2022-08-02T09:12:26.679Z,29.23
2022-08-02T09:14:54.430Z,30.55
2022-08-02T09:17:22.342Z,30.43
2022-08-02T09:20:07.845Z,29.94
2022-08-02T09:22:37.067Z,30.62
2022-08-02T09:25:06.190Z,29.66
2022-08-02T09:27:38.088Z,29.82
2022-08-02T09:30:16.679Z,30.99
2022-08-02T09:32:47.970Z,30.94
2022-08-02T09:36:06.103Z,30.99
2022-08-02T09:38:22.221Z,31.24
2022-08-02T09:40:52.207Z,30.13
2022-08-02T09:43:20.848Z,31.79
2022-08-02T09:45:48.605Z,32.87
2022-08-02T09:48:16.326Z,32.78
2022-08-02T09:50:46.327Z,31.08
2022-08-02T09:53:14.697Z,31.27
2022-08-02T09:55:43.882Z,31.07
2022-08-02T09:58:21.384Z,32.24
2022-08-02T10:00:56.455Z,30.50
2022-08-02T10:03:26.768Z,31.43
2022-08-02T10:06:04.312Z,30.56
2022-08-02T10:08:33.814Z,30.06
2022-08-02T10:11:03.497Z,29.48
2022-08-02T10:13:33.072Z,31.01
2022-08-02T10:16:02.458Z,31.05
2022-08-02T10:18:39.952Z,29.92
2022-08-02T10:21:11.378Z,31.11
2022-08-02T10:23:41.086Z,31.26
2022-08-02T10:26:10.937Z,31.65
2022-08-02T10:28:38.887Z,32.33
2022-08-02T10:31:08.653Z,32.54
2022-08-02T10:33:39.308Z,32.54
2022-08-02T10:36:10.041Z,31.94
2022-08-02T10:38:38.637Z,33.05
2022-08-02T10:41:07.998Z,32.80
2022-08-02T10:43:45.804Z,33.08
2022-08-02T10:46:24.274Z,32.08
2022-08-02T10:52:07.483Z,31.38
2022-08-02T10:54:37.875Z,31.96
2022-08-02T10:57:16.310Z,32.63
2022-08-02T10:59:45.891Z,31.91
2022-08-02T11:02:15.032Z,32.08
2022-08-02T11:05:16.569Z,32.62
2022-08-02T11:07:47.882Z,32.46
2022-08-02T11:10:38.280Z,32.31
2022-08-02T11:13:08.902Z,32.85
2022-08-02T11:15:59.029Z,34.10
2022-08-02T11:18:59.733Z,32.68
2022-08-02T11:21:28.873Z,33.69
2022-08-02T11:23:57.437Z,34.10
2022-08-02T11:26:45.355Z,35.05
2022-08-02T11:29:15.890Z,33.22
2022-08-02T11:31:46.611Z,34.12
2022-08-02T11:34:36.373Z,35.01
2022-08-02T11:37:03.128Z,35.97
2022-08-02T11:39:30.950Z,35.35
2022-08-02T11:42:00.523Z,36.12
2022-08-02T11:44:30.163Z,36.95
2022-08-02T11:47:00.670Z,36.44
2022-08-02T11:49:29.163Z,35.58
2022-08-02T11:52:01.021Z,35.87
2022-08-02T11:54:32.372Z,37.41
2022-08-02T11:57:20.268Z,37.54
2022-08-02T11:59:49.672Z,37.17
2022-08-02T12:02:19.629Z,36.75
2022-08-02T12:04:58.010Z,35.77
2022-08-02T12:07:35.324Z,37.32
2022-08-02T12:10:06.884Z,38.66
2022-08-02T12:12:34.933Z,38.19
2022-08-02T12:15:02.715Z,37.05
2022-08-02T12:17:49.358Z,36.80
2022-08-02T12:20:17.622Z,36.77
2022-08-02T12:22:45.452Z,35.84
2022-08-02T12:25:33.532Z,36.39
2022-08-02T12:28:17.755Z,36.69
2022-08-02T12:30:57.997Z,35.68
2022-08-02T12:33:28.876Z,35.43
2022-08-02T12:35:58.240Z,35.97
2022-08-02T12:38:25.957Z,35.77
2022-08-02T12:40:54.228Z,37.19
2022-08-02T12:43:24.732Z,36.81
2022-08-02T12:45:53.276Z,37.35
2022-08-02T12:48:39.136Z,37.63
2022-08-02T12:51:20.958Z,37.15
2022-08-02T12:53:59.621Z,36.76
2022-08-02T12:56:29.810Z,36.33
2022-08-02T12:58:57.739Z,36.81
2022-08-02T13:01:27.467Z,37.55
2022-08-02T13:04:09.811Z,37.68
2022-08-02T13:06:44.392Z,38.71
2022-08-02T13:09:18.005Z,37.38
2022-08-02T13:11:46.487Z,37.25
2022-08-02T13:14:15.405Z,36.83
2022-08-02T13:16:44.986Z,36.76
2022-08-02T13:19:15.472Z,38.25
2022-08-02T13:22:01.271Z,38.51
2022-08-02T13:24:41.023Z,39.91
2022-08-02T13:27:22.300Z,38.78
2022-08-02T13:29:50.685Z,38.89
2022-08-02T13:32:19.008Z,39.65
2022-08-02T13:34:48.696Z,38.98
2022-08-02T13:37:16.679Z,40.36
2022-08-02T13:40:05.556Z,39.50
2022-08-02T13:42:33.277Z,38.10
2022-08-02T13:45:11.781Z,37.53
2022-08-02T13:48:04.244Z,37.68
2022-08-02T13:50:30.799Z,37.44
2022-08-02T13:52:58.588Z,37.94
2022-08-02T13:55:26.366Z,38.57
2022-08-02T13:57:54.531Z,38.80
2022-08-02T14:00:35.615Z,38.34
2022-08-02T14:03:05.330Z,37.71
2022-08-02T14:05:39.655Z,37.35
2022-08-02T14:08:16.861Z,37.90
2022-08-02T14:10:45.082Z,36.74
2022-08-02T14:13:12.873Z,37.18
2022-08-02T14:15:40.685Z,37.53
2022-08-02T14:18:08.435Z,37.27
2022-08-02T14:20:37.627Z,38.85
2022-08-02T14:23:05.413Z,38.26
2022-08-02T14:25:33.276Z,36.37
2022-08-02T14:28:01.081Z,37.49
2022-08-02T14:30:28.856Z,37.25
2022-08-02T14:32:57.324Z,37.89
2022-08-02T14:35:25.093Z,39.42
2022-08-02T14:37:54.394Z,39.08
2022-08-02T14:40:27.778Z,37.81
2022-08-02T14:42:56.107Z,38.65
2022-08-02T14:45:26.069Z,37.28
2022-08-02T14:48:05.167Z,37.83
2022-08-02T14:50:33.753Z,37.31
2022-08-02T14:53:02.973Z,36.54
2022-08-02T14:55:30.669Z,36.68
2022-08-02T14:57:58.444Z,36.13
2022-08-02T15:00:26.201Z,36.71
2022-08-02T15:02:56.681Z,37.46
2022-08-02T15:05:24.457Z,36.51
2022-08-02T15:07:52.249Z,35.79
2022-08-02T15:10:22.218Z,35.49
2022-08-02T15:12:49.967Z,35.01
2022-08-02T15:15:18.100Z,34.93
2022-08-02T15:17:45.822Z,35.60
2022-08-02T15:20:25.801Z,35.00
2022-08-02T15:22:54.092Z,34.83
2022-08-02T15:25:23.575Z,36.13
2022-08-02T15:27:51.338Z,34.87
2022-08-02T15:30:19.217Z,34.33
2022-08-02T15:32:53.479Z,35.15
2022-08-02T15:35:21.786Z,33.94
2022-08-02T15:37:49.691Z,33.59
2022-08-02T15:40:17.576Z,32.80
2022-08-02T15:42:46.769Z,32.07
2022-08-02T15:45:15.761Z,31.88
2022-08-02T15:47:50.459Z,31.98
2022-08-02T15:50:18.857Z,31.91
2022-08-02T15:52:46.627Z,31.11
2022-08-02T15:55:14.430Z,30.81
2022-08-02T15:57:42.170Z,30.67
2022-08-02T16:00:18.084Z,30.71
2022-08-02T16:02:47.493Z,30.85
2022-08-02T16:05:17.617Z,30.75
2022-08-02T16:07:45.495Z,30.23
2022-08-02T16:10:13.337Z,30.57
2022-08-02T16:12:41.169Z,30.34
2022-08-02T16:15:12.516Z,30.40
2022-08-02T16:17:48.558Z,29.92
2022-08-02T16:20:21.916Z,29.96
2022-08-02T16:22:49.651Z,29.86
2022-08-02T16:25:17.716Z,29.65
2022-08-02T16:27:59.284Z,29.51
2022-08-02T16:30:34.845Z,29.42
2022-08-02T16:33:02.788Z,29.14
2022-08-02T16:35:30.515Z,29.13
2022-08-02T16:37:58.358Z,29.07
2022-08-02T16:40:26.452Z,28.84
2022-08-02T16:42:54.177Z,28.96
2022-08-02T16:45:22.804Z,28.94
2022-08-02T16:47:56.465Z,28.88
2022-08-02T16:50:29.302Z,28.63
2022-08-02T16:52:58.534Z,28.53
2022-08-02T16:55:29.335Z,28.35
2022-08-02T16:57:58.874Z,28.02
2022-08-02T17:00:26.927Z,27.99
2022-08-02T17:02:59.648Z,27.87
2022-08-02T17:05:29.754Z,27.70
2022-08-02T17:08:17.277Z,27.47
2022-08-02T17:10:45.557Z,27.58
2022-08-02T17:13:13.330Z,27.50
2022-08-02T17:16:07.641Z,27.46
2022-08-02T17:18:30.845Z,27.24
2022-08-02T17:20:58.981Z,27.31
2022-08-02T17:24:04.498Z,27.12
2022-08-02T17:26:14.725Z,26.97
2022-08-02T17:29:06.935Z,26.90
2022-08-02T17:31:42.400Z,26.67
2022-08-02T17:34:12.909Z,26.44
2022-08-02T17:36:44.600Z,26.47
2022-08-02T17:39:17.397Z,26.57
2022-08-02T17:41:48.847Z,26.44
2022-08-02T17:44:36.997Z,26.47
2022-08-02T17:47:07.046Z,26.06
2022-08-02T17:49:42.640Z,26.15
2022-08-02T17:52:47.934Z,26.04
2022-08-02T17:54:59.600Z,25.82
2022-08-02T17:57:55.603Z,26.02
2022-08-02T18:00:16.444Z,25.79
2022-08-02T18:02:50.524Z,25.82
2022-08-02T18:05:39.374Z,25.66
2022-08-02T18:08:09.839Z,25.48
2022-08-02T18:10:39.297Z,25.28
2022-08-02T18:13:07.230Z,25.30
2022-08-02T18:15:35.701Z,25.32
2022-08-02T18:18:03.796Z,25.13
2022-08-02T18:20:33.165Z,25.08
2022-08-02T18:23:01.230Z,25.19
2022-08-02T18:25:37.267Z,25.10
2022-08-02T18:28:12.581Z,25.10
2022-08-02T18:30:40.635Z,25.06
2022-08-02T18:33:59.212Z,24.88
2022-08-02T18:35:57.881Z,24.77
2022-08-02T18:38:26.817Z,24.54
2022-08-02T18:40:55.694Z,24.48
2022-08-02T18:46:15.414Z,24.49
2022-08-02T18:48:46.674Z,24.43
2022-08-02T18:51:19.184Z,24.27
2022-08-02T18:53:50.910Z,24.09
2022-08-02T18:56:24.686Z,23.99
2022-08-02T18:58:53.290Z,23.81
2022-08-02T19:01:33.554Z,23.78
2022-08-02T19:04:04.636Z,23.91
2022-08-02T19:06:33.788Z,23.89
2022-08-02T19:09:11.110Z,24.04
2022-08-02T19:11:47.205Z,24.00
2022-08-02T19:14:19.365Z,24.01
2022-08-02T19:16:55.225Z,23.83
2022-08-02T19:19:23.309Z,23.72
2022-08-02T19:22:15.876Z,23.53
2022-08-02T19:24:51.639Z,23.70
2022-08-02T19:27:26.206Z,23.61
2022-08-02T19:30:02.278Z,23.64
2022-08-02T19:32:42.721Z,23.57
2022-08-02T19:35:30.428Z,23.57
2022-08-02T19:38:09.606Z,23.56
2022-08-02T19:40:38.657Z,23.55
2022-08-02T19:44:26.076Z,23.44
2022-08-02T19:45:57.183Z,23.47
2022-08-02T19:48:27.219Z,23.40
2022-08-02T19:51:00.529Z,23.49
2022-08-02T19:53:47.726Z,23.50
2022-08-02T19:56:20.083Z,23.45
2022-08-02T19:58:50.250Z,23.46
2022-08-02T20:01:26.961Z,23.39
2022-08-02T20:04:34.917Z,23.37
2022-08-02T20:07:04.829Z,23.36
2022-08-02T20:09:47.072Z,23.29
2022-08-02T20:12:15.376Z,23.19
2022-08-02T20:14:50.801Z,23.01
2022-08-02T20:17:20.840Z,22.97
2022-08-02T20:20:09.063Z,23.04
2022-08-02T20:22:58.666Z,23.02
2022-08-02T20:25:29.091Z,22.99
2022-08-02T20:27:57.111Z,22.91
2022-08-02T20:30:25.474Z,23.00
2022-08-02T20:32:58.873Z,22.90
2022-08-02T20:35:30.556Z,23.04
2022-08-02T20:38:02.883Z,22.89
2022-08-02T20:40:34.661Z,22.68
2022-08-02T20:43:02.841Z,22.65
2022-08-02T20:45:35.645Z,22.54
2022-08-02T20:48:03.587Z,22.63
2022-08-02T20:50:52.156Z,22.58
2022-08-02T20:53:24.103Z,22.57
2022-08-02T20:56:00.332Z,22.49
2022-08-02T20:58:28.192Z,22.53
2022-08-02T21:01:00.004Z,22.44
2022-08-02T21:03:39.439Z,22.39
2022-08-02T21:06:09.377Z,22.27
2022-08-02T21:08:38.380Z,22.22
2022-08-02T21:11:09.208Z,22.24
2022-08-02T21:13:47.105Z,22.27
2022-08-02T21:16:28.102Z,22.15
2022-08-02T21:19:00.234Z,22.10
2022-08-02T21:21:28.329Z,22.00
2022-08-02T21:23:57.609Z,21.80
2022-08-02T21:26:30.459Z,21.67
2022-08-02T21:29:00.962Z,21.55
2022-08-02T21:31:33.689Z,21.59
2022-08-02T21:34:04.034Z,21.61
2022-08-02T21:36:49.363Z,21.54
2022-08-02T21:39:18.433Z,21.63
2022-08-02T21:41:47.587Z,21.54
2022-08-02T21:44:16.345Z,21.79
2022-08-02T21:46:45.462Z,21.64
2022-08-02T21:49:13.819Z,21.71
2022-08-02T21:51:43.603Z,21.54
2022-08-02T21:54:19.563Z,21.63
2022-08-02T21:56:51.898Z,21.48
2022-08-02T22:02:09.169Z,21.46
2022-08-02T22:04:36.901Z,21.35
2022-08-02T22:07:04.674Z,21.40
2022-08-02T22:09:42.839Z,21.32
2022-08-02T22:12:17.981Z,21.38
2022-08-02T22:14:49.489Z,21.28
2022-08-02T22:17:50.655Z,21.27
2022-08-02T22:20:12.353Z,21.18
2022-08-02T22:22:40.618Z,21.19
2022-08-02T22:25:10.070Z,21.13
2022-08-02T22:28:36.192Z,21.16
2022-08-02T22:30:39.164Z,21.20
2022-08-02T22:33:33.148Z,21.23
2022-08-02T22:36:01.934Z,21.13
2022-08-02T22:38:29.987Z,21.15
2022-08-02T22:40:57.694Z,21.12
2022-08-02T22:43:26.779Z,21.23
2022-08-02T22:45:59.163Z,21.21
2022-08-02T22:48:27.382Z,21.17
2022-08-02T22:50:55.447Z,21.01
2022-08-02T22:53:24.716Z,20.78
2022-08-02T22:56:03.881Z,20.66
2022-08-02T22:58:33.817Z,20.72
2022-08-02T22:58:45.272Z,24.53
2022-08-02T22:59:03.936Z,21.50
2022-08-02T23:01:01.852Z,20.52
2022-08-02T23:03:29.809Z,20.46
2022-08-02T23:05:57.969Z,20.57
2022-08-02T23:08:26.081Z,20.66
2022-08-02T23:10:53.996Z,20.64
2022-08-02T23:13:25.343Z,20.48
2022-08-02T23:16:14.752Z,20.39
2022-08-02T23:18:59.970Z,20.40
2022-08-02T23:22:01.115Z,20.52
2022-08-02T23:24:22.364Z,20.71
2022-08-02T23:26:50.113Z,20.68
2022-08-02T23:29:17.809Z,20.59
2022-08-02T23:31:46.874Z,20.51
2022-08-02T23:34:14.586Z,20.53
2022-08-02T23:36:42.268Z,20.43
2022-08-02T23:39:10.125Z,20.41
2022-08-02T23:41:37.840Z,20.26
2022-08-02T23:44:14.511Z,20.29
2022-08-02T23:46:43.105Z,20.24
2022-08-02T23:49:13.681Z,20.21
2022-08-02T23:51:41.468Z,20.20
2022-08-02T23:54:09.364Z,20.18
2022-08-02T23:56:37.167Z,20.11
2022-08-02T23:59:05.444Z,20.17
